sensor_id;sensor_type;location;lat;lon;timestamp;pressure;altitude;pressure_sealevel;temperature;humidity
81680;BME280;74989;52.210;5.148;2024-01-30T00:00:27;102622.88;;;8.53;82.84
81680;BME280;74989;52.210;5.148;2024-01-30T00:02:54;102618.22;;;8.55;82.63
81680;BME280;74989;52.210;5.148;2024-01-30T00:05:21;102612.34;;;8.53;82.48
81680;BME280;74989;52.210;5.148;2024-01-30T00:07:47;102610.94;;;8.57;82.61
81680;BME280;74989;52.210;5.148;2024-01-30T00:10:14;102605.97;;;8.48;82.87
81680;BME280;74989;52.210;5.148;2024-01-30T00:12:41;102601.22;;;8.58;82.62
81680;BME280;74989;52.210;5.148;2024-01-30T00:15:09;102609.78;;;8.60;82.43
81680;BME280;74989;52.210;5.148;2024-01-30T00:17:36;102615.59;;;8.55;82.74
81680;BME280;74989;52.210;5.148;2024-01-30T00:20:03;102602.50;;;8.62;82.44
81680;BME280;74989;52.210;5.148;2024-01-30T00:22:31;102599.66;;;8.63;82.35
81680;BME280;74989;52.210;5.148;2024-01-30T00:24:58;102609.38;;;8.63;82.30
81680;BME280;74989;52.210;5.148;2024-01-30T00:27:25;102607.75;;;8.62;82.47
81680;BME280;74989;52.210;5.148;2024-01-30T00:29:53;102607.13;;;8.60;82.49
81680;BME280;74989;52.210;5.148;2024-01-30T00:32:21;102611.66;;;8.66;82.17
81680;BME280;74989;52.210;5.148;2024-01-30T00:34:48;102608.75;;;8.61;81.97
81680;BME280;74989;52.210;5.148;2024-01-30T00:37:15;102599.84;;;8.62;82.14
81680;BME280;74989;52.210;5.148;2024-01-30T00:39:41;102597.84;;;8.64;82.14
81680;BME280;74989;52.210;5.148;2024-01-30T00:42:08;102601.47;;;8.63;82.11
81680;BME280;74989;52.210;5.148;2024-01-30T00:44:35;102602.50;;;8.62;82.44
81680;BME280;74989;52.210;5.148;2024-01-30T00:47:02;102598.84;;;8.63;82.35
81680;BME280;74989;52.210;5.148;2024-01-30T00:49:30;102592.31;;;8.59;82.37
81680;BME280;74989;52.210;5.148;2024-01-30T00:51:57;102603.03;;;8.57;82.06
81680;BME280;74989;52.210;5.148;2024-01-30T00:54:24;102596.31;;;8.55;82.23
81680;BME280;74989;52.210;5.148;2024-01-30T00:56:50;102593.41;;;8.50;82.52
81680;BME280;74989;52.210;5.148;2024-01-30T00:59:17;102584.69;;;8.49;82.71
81680;BME280;74989;52.210;5.148;2024-01-30T01:01:43;102599.38;;;8.58;82.33
81680;BME280;74989;52.210;5.148;2024-01-30T01:04:10;102597.56;;;8.59;82.36
81680;BME280;74989;52.210;5.148;2024-01-30T01:06:38;102590.16;;;8.48;82.66
81680;BME280;74989;52.210;5.148;2024-01-30T01:09:07;102581.22;;;8.49;82.53
81680;BME280;74989;52.210;5.148;2024-01-30T01:11:34;102577.19;;;8.46;82.48
81680;BME280;74989;52.210;5.148;2024-01-30T01:14:01;102563.25;;;8.52;82.80
81680;BME280;74989;52.210;5.148;2024-01-30T01:16:27;102568.66;;;8.65;82.17
81680;BME280;74989;52.210;5.148;2024-01-30T01:18:54;102571.28;;;8.65;82.07
81680;BME280;74989;52.210;5.148;2024-01-30T01:21:20;102581.41;;;8.62;82.01
81680;BME280;74989;52.210;5.148;2024-01-30T01:23:49;102578.97;;;8.60;82.09
81680;BME280;74989;52.210;5.148;2024-01-30T01:26:16;102585.03;;;8.61;82.13
81680;BME280;74989;52.210;5.148;2024-01-30T01:28:43;102579.03;;;8.67;81.77
81680;BME280;74989;52.210;5.148;2024-01-30T01:31:09;102579.41;;;8.64;81.97
81680;BME280;74989;52.210;5.148;2024-01-30T01:33:36;102584.66;;;8.64;81.71
81680;BME280;74989;52.210;5.148;2024-01-30T01:36:03;102583.03;;;8.63;81.92
81680;BME280;74989;52.210;5.148;2024-01-30T01:38:30;102579.13;;;8.59;82.00
81680;BME280;74989;52.210;5.148;2024-01-30T01:40:58;102590.69;;;8.58;81.63
81680;BME280;74989;52.210;5.148;2024-01-30T01:43:24;102581.50;;;8.54;81.77
81680;BME280;74989;52.210;5.148;2024-01-30T01:45:51;102576.84;;;8.56;81.99
81680;BME280;74989;52.210;5.148;2024-01-30T01:48:18;102577.25;;;8.53;81.85
81680;BME280;74989;52.210;5.148;2024-01-30T01:50:44;102578.69;;;8.55;81.80
81680;BME280;74989;52.210;5.148;2024-01-30T01:53:12;102573.16;;;8.50;81.50
81680;BME280;74989;52.210;5.148;2024-01-30T01:55:39;102573.25;;;8.42;81.76
81680;BME280;74989;52.210;5.148;2024-01-30T01:58:08;102571.19;;;8.38;82.02
81680;BME280;74989;52.210;5.148;2024-01-30T02:00:36;102568.47;;;8.31;82.04
81680;BME280;74989;52.210;5.148;2024-01-30T02:03:05;102564.09;;;8.38;82.20
81680;BME280;74989;52.210;5.148;2024-01-30T02:05:32;102573.53;;;8.47;81.88
81680;BME280;74989;52.210;5.148;2024-01-30T02:07:59;102566.91;;;8.37;81.80
81680;BME280;74989;52.210;5.148;2024-01-30T02:10:25;102578.72;;;8.41;82.11
81680;BME280;74989;52.210;5.148;2024-01-30T02:12:52;102560.38;;;8.32;82.26
81680;BME280;74989;52.210;5.148;2024-01-30T02:15:20;102552.47;;;8.32;82.47
81680;BME280;74989;52.210;5.148;2024-01-30T02:17:46;102556.75;;;8.34;82.65
81680;BME280;74989;52.210;5.148;2024-01-30T02:20:13;102575.19;;;8.34;82.70
81680;BME280;74989;52.210;5.148;2024-01-30T02:22:41;102572.19;;;8.37;82.72
81680;BME280;74989;52.210;5.148;2024-01-30T02:25:09;102568.00;;;8.42;82.14
81680;BME280;74989;52.210;5.148;2024-01-30T02:27:35;102562.34;;;8.45;82.17
81680;BME280;74989;52.210;5.148;2024-01-30T02:30:03;102577.06;;;8.54;81.70
81680;BME280;74989;52.210;5.148;2024-01-30T02:32:30;102571.34;;;8.51;81.87
81680;BME280;74989;52.210;5.148;2024-01-30T02:34:56;102571.50;;;8.49;81.90
81680;BME280;74989;52.210;5.148;2024-01-30T02:37:23;102559.06;;;8.58;81.54
81680;BME280;74989;52.210;5.148;2024-01-30T02:39:51;102553.81;;;8.58;81.06
81680;BME280;74989;52.210;5.148;2024-01-30T02:42:17;102545.06;;;8.57;81.11
81680;BME280;74989;52.210;5.148;2024-01-30T02:44:44;102543.81;;;8.53;81.57
81680;BME280;74989;52.210;5.148;2024-01-30T02:47:10;102557.44;;;8.57;81.49
81680;BME280;74989;52.210;5.148;2024-01-30T02:49:37;102542.19;;;8.52;81.70
81680;BME280;74989;52.210;5.148;2024-01-30T02:52:04;102551.97;;;8.58;81.69
81680;BME280;74989;52.210;5.148;2024-01-30T02:54:31;102536.41;;;8.63;81.24
81680;BME280;74989;52.210;5.148;2024-01-30T02:56:59;102546.22;;;8.69;80.93
81680;BME280;74989;52.210;5.148;2024-01-30T02:59:25;102544.94;;;8.65;80.74
81680;BME280;74989;52.210;5.148;2024-01-30T03:01:52;102537.59;;;8.61;81.14
81680;BME280;74989;52.210;5.148;2024-01-30T03:04:19;102541.41;;;8.58;80.93
81680;BME280;74989;52.210;5.148;2024-01-30T03:06:46;102538.56;;;8.53;81.19
81680;BME280;74989;52.210;5.148;2024-01-30T03:09:13;102536.06;;;8.52;81.13
81680;BME280;74989;52.210;5.148;2024-01-30T03:11:40;102541.28;;;8.45;81.53
81680;BME280;74989;52.210;5.148;2024-01-30T03:14:08;102541.22;;;8.39;81.81
81680;BME280;74989;52.210;5.148;2024-01-30T03:16:36;102541.00;;;8.40;81.40
81680;BME280;74989;52.210;5.148;2024-01-30T03:19:03;102533.88;;;8.34;81.71
81680;BME280;74989;52.210;5.148;2024-01-30T03:21:30;102530.28;;;8.42;81.53
81680;BME280;74989;52.210;5.148;2024-01-30T03:23:57;102525.22;;;8.40;81.34
81680;BME280;74989;52.210;5.148;2024-01-30T03:26:24;102524.47;;;8.46;81.54
81680;BME280;74989;52.210;5.148;2024-01-30T03:28:51;102516.25;;;8.35;81.37
81680;BME280;74989;52.210;5.148;2024-01-30T03:31:19;102514.31;;;8.43;81.49
81680;BME280;74989;52.210;5.148;2024-01-30T03:33:46;102499.88;;;8.39;81.62
81680;BME280;74989;52.210;5.148;2024-01-30T03:36:14;102498.88;;;8.40;81.40
81680;BME280;74989;52.210;5.148;2024-01-30T03:38:41;102492.41;;;8.43;81.16
81680;BME280;74989;52.210;5.148;2024-01-30T03:41:08;102498.25;;;8.38;81.52
81680;BME280;74989;52.210;5.148;2024-01-30T03:43:35;102493.09;;;8.51;81.37
81680;BME280;74989;52.210;5.148;2024-01-30T03:46:01;102501.00;;;8.51;81.03
81680;BME280;74989;52.210;5.148;2024-01-30T03:48:30;102500.44;;;8.56;81.24
81680;BME280;74989;52.210;5.148;2024-01-30T03:50:57;102503.91;;;8.56;80.91
81680;BME280;74989;52.210;5.148;2024-01-30T03:53:23;102502.09;;;8.57;80.96
81680;BME280;74989;52.210;5.148;2024-01-30T03:55:50;102510.97;;;8.56;81.38
81680;BME280;74989;52.210;5.148;2024-01-30T03:58:16;102512.53;;;8.65;81.10
81680;BME280;74989;52.210;5.148;2024-01-30T04:00:43;102505.25;;;8.67;80.76
81680;BME280;74989;52.210;5.148;2024-01-30T04:03:10;102511.69;;;8.64;81.05
81680;BME280;74989;52.210;5.148;2024-01-30T04:05:38;102515.03;;;8.73;80.21
81680;BME280;74989;52.210;5.148;2024-01-30T04:08:05;102520.75;;;8.76;80.42
81680;BME280;74989;52.210;5.148;2024-01-30T04:10:31;102507.47;;;8.70;80.50
81680;BME280;74989;52.210;5.148;2024-01-30T04:12:58;102510.78;;;8.72;80.30
81680;BME280;74989;52.210;5.148;2024-01-30T04:15:25;102508.75;;;8.74;79.82
81680;BME280;74989;52.210;5.148;2024-01-30T04:17:51;102509.31;;;8.69;80.20
81680;BME280;74989;52.210;5.148;2024-01-30T04:20:18;102498.16;;;8.67;80.38
81680;BME280;74989;52.210;5.148;2024-01-30T04:22:46;102507.81;;;8.60;80.71
81680;BME280;74989;52.210;5.148;2024-01-30T04:25:13;102494.06;;;8.65;80.36
81680;BME280;74989;52.210;5.148;2024-01-30T04:27:40;102487.78;;;8.66;80.31
81680;BME280;74989;52.210;5.148;2024-01-30T04:30:07;102492.13;;;8.73;79.96
81680;BME280;74989;52.210;5.148;2024-01-30T04:32:35;102486.47;;;8.76;80.09
81680;BME280;74989;52.210;5.148;2024-01-30T04:35:02;102492.75;;;8.75;79.80
81680;BME280;74989;52.210;5.148;2024-01-30T04:37:29;102484.00;;;8.75;80.40
81680;BME280;74989;52.210;5.148;2024-01-30T04:39:57;102471.84;;;8.74;80.38
81680;BME280;74989;52.210;5.148;2024-01-30T04:42:23;102470.91;;;8.60;80.18
81680;BME280;74989;52.210;5.148;2024-01-30T04:44:50;102474.88;;;8.71;80.34
81680;BME280;74989;52.210;5.148;2024-01-30T04:47:17;102476.72;;;8.77;80.24
81680;BME280;74989;52.210;5.148;2024-01-30T04:49:44;102478.06;;;8.66;80.08
81680;BME280;74989;52.210;5.148;2024-01-30T04:52:10;102488.97;;;8.63;80.31
81680;BME280;74989;52.210;5.148;2024-01-30T04:54:37;102486.03;;;8.73;80.10
81680;BME280;74989;52.210;5.148;2024-01-30T04:57:05;102469.34;;;8.66;80.18
81680;BME280;74989;52.210;5.148;2024-01-30T04:59:35;102475.63;;;8.65;80.42
81680;BME280;74989;52.210;5.148;2024-01-30T05:02:01;102468.97;;;8.69;80.49
81680;BME280;74989;52.210;5.148;2024-01-30T05:04:28;102485.78;;;8.68;80.24
81680;BME280;74989;52.210;5.148;2024-01-30T05:06:55;102475.78;;;8.63;80.58
81680;BME280;74989;52.210;5.148;2024-01-30T05:09:21;102474.91;;;8.77;80.11
81680;BME280;74989;52.210;5.148;2024-01-30T05:11:48;102471.59;;;8.69;80.71
81680;BME280;74989;52.210;5.148;2024-01-30T05:14:16;102472.44;;;8.69;80.59
81680;BME280;74989;52.210;5.148;2024-01-30T05:16:43;102478.13;;;8.73;80.67
81680;BME280;74989;52.210;5.148;2024-01-30T05:19:12;102469.47;;;8.79;80.30
81680;BME280;74989;52.210;5.148;2024-01-30T05:21:39;102466.44;;;8.82;80.48
81680;BME280;74989;52.210;5.148;2024-01-30T05:24:06;102465.69;;;8.88;80.02
81680;BME280;74989;52.210;5.148;2024-01-30T05:26:35;102478.06;;;8.87;80.33
81680;BME280;74989;52.210;5.148;2024-01-30T05:29:01;102475.22;;;8.89;80.01
81680;BME280;74989;52.210;5.148;2024-01-30T05:31:29;102470.81;;;8.96;80.23
81680;BME280;74989;52.210;5.148;2024-01-30T05:33:57;102468.81;;;8.98;79.78
81680;BME280;74989;52.210;5.148;2024-01-30T05:36:23;102473.13;;;9.06;79.68
81680;BME280;74989;52.210;5.148;2024-01-30T05:38:50;102474.53;;;9.02;79.52
81680;BME280;74989;52.210;5.148;2024-01-30T05:41:16;102473.34;;;9.04;79.42
81680;BME280;74989;52.210;5.148;2024-01-30T05:43:43;102476.72;;;8.98;79.95
81680;BME280;74989;52.210;5.148;2024-01-30T05:46:10;102478.16;;;9.00;79.65
81680;BME280;74989;52.210;5.148;2024-01-30T05:48:38;102478.09;;;8.94;80.25
81680;BME280;74989;52.210;5.148;2024-01-30T05:51:04;102478.72;;;8.96;79.91
81680;BME280;74989;52.210;5.148;2024-01-30T05:53:31;102474.84;;;8.92;80.36
81680;BME280;74989;52.210;5.148;2024-01-30T05:55:58;102476.72;;;8.98;80.00
81680;BME280;74989;52.210;5.148;2024-01-30T05:58:25;102479.19;;;8.99;79.89
81680;BME280;74989;52.210;5.148;2024-01-30T06:00:52;102484.22;;;8.94;80.09
81680;BME280;74989;52.210;5.148;2024-01-30T06:03:18;102474.72;;;9.00;80.05
81680;BME280;74989;52.210;5.148;2024-01-30T06:05:47;102474.91;;;8.98;80.35
81680;BME280;74989;52.210;5.148;2024-01-30T06:08:13;102487.25;;;8.98;80.21
81680;BME280;74989;52.210;5.148;2024-01-30T06:10:40;102483.44;;;9.00;80.11
81680;BME280;74989;52.210;5.148;2024-01-30T06:13:06;102484.25;;;9.01;80.46
81680;BME280;74989;52.210;5.148;2024-01-30T06:15:33;102477.22;;;9.08;79.75
81680;BME280;74989;52.210;5.148;2024-01-30T06:18:00;102471.53;;;9.05;80.05
81680;BME280;74989;52.210;5.148;2024-01-30T06:20:26;102468.44;;;9.01;80.26
81680;BME280;74989;52.210;5.148;2024-01-30T06:22:57;102467.00;;;8.98;80.50
81680;BME280;74989;52.210;5.148;2024-01-30T06:25:24;102476.19;;;9.03;80.15
81680;BME280;74989;52.210;5.148;2024-01-30T06:27:51;102479.44;;;9.05;80.55
81680;BME280;74989;52.210;5.148;2024-01-30T06:30:18;102466.53;;;8.88;80.98
81680;BME280;74989;52.210;5.148;2024-01-30T06:32:45;102472.97;;;9.07;80.50
81680;BME280;74989;52.210;5.148;2024-01-30T06:35:11;102472.16;;;9.07;81.09
81680;BME280;74989;52.210;5.148;2024-01-30T06:37:38;102480.50;;;9.17;80.47
81680;BME280;74989;52.210;5.148;2024-01-30T06:40:07;102484.59;;;9.19;80.67
81680;BME280;74989;52.210;5.148;2024-01-30T06:42:34;102484.66;;;9.26;80.44
81680;BME280;74989;52.210;5.148;2024-01-30T06:45:00;102499.06;;;9.23;80.56
81680;BME280;74989;52.210;5.148;2024-01-30T06:47:27;102496.00;;;9.26;80.50
81680;BME280;74989;52.210;5.148;2024-01-30T06:49:56;102491.56;;;9.27;80.55
81680;BME280;74989;52.210;5.148;2024-01-30T06:52:22;102500.22;;;9.42;80.14
81680;BME280;74989;52.210;5.148;2024-01-30T06:54:49;102491.94;;;9.51;79.72
81680;BME280;74989;52.210;5.148;2024-01-30T06:57:17;102495.97;;;9.47;80.02
81680;BME280;74989;52.210;5.148;2024-01-30T06:59:44;102492.13;;;9.50;80.24
81680;BME280;74989;52.210;5.148;2024-01-30T07:02:10;102483.19;;;9.44;80.23
81680;BME280;74989;52.210;5.148;2024-01-30T07:04:37;102491.94;;;9.51;80.19
81680;BME280;74989;52.210;5.148;2024-01-30T07:07:04;102485.66;;;9.52;80.07
81680;BME280;74989;52.210;5.148;2024-01-30T07:09:37;102494.25;;;9.61;80.17
81680;BME280;74989;52.210;5.148;2024-01-30T07:12:04;102495.09;;;9.68;80.09
81680;BME280;74989;52.210;5.148;2024-01-30T07:14:32;102484.97;;;9.72;79.87
81680;BME280;74989;52.210;5.148;2024-01-30T07:16:59;102487.38;;;9.73;79.80
81680;BME280;74989;52.210;5.148;2024-01-30T07:19:26;102494.72;;;9.78;80.03
81680;BME280;74989;52.210;5.148;2024-01-30T07:21:52;102499.81;;;9.79;80.23
81680;BME280;74989;52.210;5.148;2024-01-30T07:24:19;102498.44;;;9.90;80.13
81680;BME280;74989;52.210;5.148;2024-01-30T07:26:45;102499.66;;;9.87;79.88
81680;BME280;74989;52.210;5.148;2024-01-30T07:29:12;102500.91;;;9.91;79.98
81680;BME280;74989;52.210;5.148;2024-01-30T07:31:40;102498.03;;;9.86;80.20
81680;BME280;74989;52.210;5.148;2024-01-30T07:34:08;102500.50;;;9.94;80.40
81680;BME280;74989;52.210;5.148;2024-01-30T07:36:35;102493.63;;;10.00;80.10
81680;BME280;74989;52.210;5.148;2024-01-30T07:39:02;102509.16;;;10.16;79.43
81680;BME280;74989;52.210;5.148;2024-01-30T07:41:29;102512.03;;;10.21;79.19
81680;BME280;74989;52.210;5.148;2024-01-30T07:43:55;102514.03;;;10.12;79.69
81680;BME280;74989;52.210;5.148;2024-01-30T07:46:22;102517.16;;;10.29;78.83
81680;BME280;74989;52.210;5.148;2024-01-30T07:48:53;102523.88;;;10.31;79.16
81680;BME280;74989;52.210;5.148;2024-01-30T07:51:21;102522.88;;;10.39;78.90
81680;BME280;74989;52.210;5.148;2024-01-30T07:53:54;102521.06;;;10.40;78.76
81680;BME280;74989;52.210;5.148;2024-01-30T07:56:23;102516.75;;;10.38;78.73
81680;BME280;74989;52.210;5.148;2024-01-30T07:58:50;102526.78;;;10.50;78.61
81680;BME280;74989;52.210;5.148;2024-01-30T08:01:18;102527.00;;;10.55;78.67
81680;BME280;74989;52.210;5.148;2024-01-30T08:03:45;102530.88;;;10.59;78.70
81680;BME280;74989;52.210;5.148;2024-01-30T08:06:13;102530.88;;;10.72;78.30
81680;BME280;74989;52.210;5.148;2024-01-30T08:08:39;102526.25;;;10.80;78.11
81680;BME280;74989;52.210;5.148;2024-01-30T08:11:06;102518.88;;;10.69;78.21
81680;BME280;74989;52.210;5.148;2024-01-30T08:13:33;102528.47;;;10.83;77.79
81680;BME280;74989;52.210;5.148;2024-01-30T08:15:59;102534.41;;;10.85;78.00
81680;BME280;74989;52.210;5.148;2024-01-30T08:18:26;102520.13;;;10.86;78.04
81680;BME280;74989;52.210;5.148;2024-01-30T08:20:52;102520.34;;;10.91;77.37
81680;BME280;74989;52.210;5.148;2024-01-30T08:23:20;102529.09;;;10.92;77.60
81680;BME280;74989;52.210;5.148;2024-01-30T08:25:47;102529.72;;;11.00;77.46
81680;BME280;74989;52.210;5.148;2024-01-30T08:28:14;102527.06;;;11.07;77.80
81680;BME280;74989;52.210;5.148;2024-01-30T08:30:40;102522.19;;;11.17;77.41
81680;BME280;74989;52.210;5.148;2024-01-30T08:33:07;102535.44;;;11.24;77.36
81680;BME280;74989;52.210;5.148;2024-01-30T08:35:34;102538.69;;;11.26;77.16
81680;BME280;74989;52.210;5.148;2024-01-30T08:38:01;102535.84;;;11.27;77.05
81680;BME280;74989;52.210;5.148;2024-01-30T08:40:30;102527.06;;;11.33;76.98
81680;BME280;74989;52.210;5.148;2024-01-30T08:42:57;102532.78;;;11.37;76.92
81680;BME280;74989;52.210;5.148;2024-01-30T08:45:23;102535.44;;;11.43;76.73
81680;BME280;74989;52.210;5.148;2024-01-30T08:47:50;102541.72;;;11.49;76.37
81680;BME280;74989;52.210;5.148;2024-01-30T08:50:17;102534.19;;;11.52;76.62
81680;BME280;74989;52.210;5.148;2024-01-30T08:52:44;102542.97;;;11.53;76.55
81680;BME280;74989;52.210;5.148;2024-01-30T08:55:11;102544.78;;;11.52;76.24
81680;BME280;74989;52.210;5.148;2024-01-30T08:57:39;102536.84;;;11.52;76.49
81680;BME280;74989;52.210;5.148;2024-01-30T09:00:06;102531.94;;;11.56;76.13
81680;BME280;74989;52.210;5.148;2024-01-30T09:02:34;102535.41;;;11.56;75.92
81680;BME280;74989;52.210;5.148;2024-01-30T09:05:01;102533.16;;;11.47;76.89
81680;BME280;74989;52.210;5.148;2024-01-30T09:07:28;102544.16;;;11.57;76.42
81680;BME280;74989;52.210;5.148;2024-01-30T09:09:55;102539.28;;;11.54;76.27
81680;BME280;74989;52.210;5.148;2024-01-30T09:12:21;102543.75;;;11.47;76.92
81680;BME280;74989;52.210;5.148;2024-01-30T09:14:49;102542.34;;;11.51;76.70
81680;BME280;74989;52.210;5.148;2024-01-30T09:17:16;102549.06;;;11.53;76.73
81680;BME280;74989;52.210;5.148;2024-01-30T09:19:42;102553.13;;;11.49;77.01
81680;BME280;74989;52.210;5.148;2024-01-30T09:22:09;102559.66;;;11.53;76.68
81680;BME280;74989;52.210;5.148;2024-01-30T09:24:36;102567.41;;;11.55;76.74
81680;BME280;74989;52.210;5.148;2024-01-30T09:27:03;102562.50;;;11.52;76.78
81680;BME280;74989;52.210;5.148;2024-01-30T09:29:29;102558.03;;;11.52;76.94
81680;BME280;74989;52.210;5.148;2024-01-30T09:31:57;102561.88;;;11.50;77.32
81680;BME280;74989;52.210;5.148;2024-01-30T09:34:24;102559.63;;;11.66;76.37
81680;BME280;74989;52.210;5.148;2024-01-30T09:36:50;102559.22;;;11.63;76.67
81680;BME280;74989;52.210;5.148;2024-01-30T09:39:17;102557.63;;;11.68;76.70
81680;BME280;74989;52.210;5.148;2024-01-30T09:41:48;102572.50;;;11.69;76.30
81680;BME280;74989;52.210;5.148;2024-01-30T09:44:16;102562.72;;;11.70;76.21
81680;BME280;74989;52.210;5.148;2024-01-30T09:46:43;102558.66;;;11.74;76.22
81680;BME280;74989;52.210;5.148;2024-01-30T09:49:14;102569.63;;;11.78;76.14
81680;BME280;74989;52.210;5.148;2024-01-30T09:51:42;102576.94;;;11.82;75.80
81680;BME280;74989;52.210;5.148;2024-01-30T09:54:09;102563.53;;;11.84;76.02
81680;BME280;74989;52.210;5.148;2024-01-30T09:56:37;102569.19;;;11.94;75.20
81680;BME280;74989;52.210;5.148;2024-01-30T09:59:03;102574.47;;;11.94;75.66
81680;BME280;74989;52.210;5.148;2024-01-30T10:01:31;102583.28;;;11.88;76.11
81680;BME280;74989;52.210;5.148;2024-01-30T10:03:58;102580.16;;;12.10;75.58
81680;BME280;74989;52.210;5.148;2024-01-30T10:06:26;102577.66;;;12.22;75.20
81680;BME280;74989;52.210;5.148;2024-01-30T10:08:54;102575.41;;;12.32;74.64
81680;BME280;74989;52.210;5.148;2024-01-30T10:11:20;102572.53;;;12.40;74.36
81680;BME280;74989;52.210;5.148;2024-01-30T10:13:47;102589.44;;;12.39;74.19
81680;BME280;74989;52.210;5.148;2024-01-30T10:16:14;102579.84;;;12.38;73.70
81680;BME280;74989;52.210;5.148;2024-01-30T10:18:42;102588.88;;;12.30;74.19
81680;BME280;74989;52.210;5.148;2024-01-30T10:21:08;102592.13;;;12.32;74.01
81680;BME280;74989;52.210;5.148;2024-01-30T10:23:37;102586.03;;;12.25;74.59
81680;BME280;74989;52.210;5.148;2024-01-30T10:26:04;102565.47;;;12.21;75.07
81680;BME280;74989;52.210;5.148;2024-01-30T10:28:32;102570.94;;;12.19;74.57
81680;BME280;74989;52.210;5.148;2024-01-30T10:30:59;102580.13;;;12.17;74.54
81680;BME280;74989;52.210;5.148;2024-01-30T10:33:26;102591.56;;;12.17;74.04
81680;BME280;74989;52.210;5.148;2024-01-30T10:35:55;102587.47;;;12.15;73.41
81680;BME280;74989;52.210;5.148;2024-01-30T10:38:28;102598.53;;;11.99;73.95
81680;BME280;74989;52.210;5.148;2024-01-30T10:40:58;102604.25;;;11.89;74.18
81680;BME280;74989;52.210;5.148;2024-01-30T10:43:31;102592.66;;;11.84;73.90
81680;BME280;74989;52.210;5.148;2024-01-30T10:46:04;102608.34;;;11.79;73.89
81680;BME280;74989;52.210;5.148;2024-01-30T10:48:36;102615.50;;;11.71;74.19
81680;BME280;74989;52.210;5.148;2024-01-30T10:51:05;102611.19;;;11.77;73.70
81680;BME280;74989;52.210;5.148;2024-01-30T10:53:32;102613.44;;;11.80;73.64
81680;BME280;74989;52.210;5.148;2024-01-30T10:56:01;102628.66;;;12.17;72.80
81680;BME280;74989;52.210;5.148;2024-01-30T10:58:29;102627.16;;;12.41;71.29
81680;BME280;74989;52.210;5.148;2024-01-30T11:00:56;102617.06;;;12.12;71.23
81680;BME280;74989;52.210;5.148;2024-01-30T11:03:23;102645.00;;;12.01;71.39
81680;BME280;74989;52.210;5.148;2024-01-30T11:05:50;102635.44;;;11.94;70.67
81680;BME280;74989;52.210;5.148;2024-01-30T11:08:22;102637.28;;;11.80;70.63
81680;BME280;74989;52.210;5.148;2024-01-30T11:10:55;102636.06;;;11.69;71.02
81680;BME280;74989;52.210;5.148;2024-01-30T11:13:27;102642.34;;;11.55;71.25
81680;BME280;74989;52.210;5.148;2024-01-30T11:15:54;102635.00;;;11.44;71.54
81680;BME280;74989;52.210;5.148;2024-01-30T11:18:24;102638.28;;;11.46;71.32
81680;BME280;74989;52.210;5.148;2024-01-30T11:20:51;102649.44;;;11.42;71.01
81680;BME280;74989;52.210;5.148;2024-01-30T11:23:18;102641.72;;;11.40;70.84
81680;BME280;74989;52.210;5.148;2024-01-30T11:25:45;102634.78;;;11.33;70.65
81680;BME280;74989;52.210;5.148;2024-01-30T11:28:13;102647.63;;;11.29;70.02
81680;BME280;74989;52.210;5.148;2024-01-30T11:30:43;102651.69;;;11.25;69.74
81680;BME280;74989;52.210;5.148;2024-01-30T11:33:10;102643.31;;;11.15;70.16
81680;BME280;74989;52.210;5.148;2024-01-30T11:35:38;102643.69;;;11.05;70.89
81680;BME280;74989;52.210;5.148;2024-01-30T11:38:06;102647.94;;;11.00;70.57
81680;BME280;74989;52.210;5.148;2024-01-30T11:40:34;102645.31;;;11.06;70.01
81680;BME280;74989;52.210;5.148;2024-01-30T11:43:03;102644.69;;;11.04;69.89
81680;BME280;74989;52.210;5.148;2024-01-30T11:45:30;102649.56;;;10.94;70.38
81680;BME280;74989;52.210;5.148;2024-01-30T11:47:59;102638.34;;;10.86;71.09
81680;BME280;74989;52.210;5.148;2024-01-30T11:50:28;102654.19;;;10.79;71.61
81680;BME280;74989;52.210;5.148;2024-01-30T11:52:55;102657.06;;;10.84;71.34
81680;BME280;74989;52.210;5.148;2024-01-30T11:55:24;102657.88;;;10.78;71.79
81680;BME280;74989;52.210;5.148;2024-01-30T11:57:51;102660.44;;;10.65;72.25
81680;BME280;74989;52.210;5.148;2024-01-30T12:00:18;102668.75;;;10.62;72.91
81680;BME280;74989;52.210;5.148;2024-01-30T12:02:49;102661.25;;;10.59;72.48
81680;BME280;74989;52.210;5.148;2024-01-30T12:05:19;102664.66;;;10.53;72.35
81680;BME280;74989;52.210;5.148;2024-01-30T12:07:45;102667.88;;;10.49;72.05
81680;BME280;74989;52.210;5.148;2024-01-30T12:10:13;102671.09;;;10.44;71.93
81680;BME280;74989;52.210;5.148;2024-01-30T12:12:41;102670.91;;;10.46;71.44
81680;BME280;74989;52.210;5.148;2024-01-30T12:15:09;102683.22;;;10.32;71.71
81680;BME280;74989;52.210;5.148;2024-01-30T12:17:36;102684.91;;;10.40;71.58
81680;BME280;74989;52.210;5.148;2024-01-30T12:20:04;102681.66;;;10.38;72.05
81680;BME280;74989;52.210;5.148;2024-01-30T12:22:35;102666.00;;;10.36;72.31
81680;BME280;74989;52.210;5.148;2024-01-30T12:25:03;102684.72;;;10.41;72.21
81680;BME280;74989;52.210;5.148;2024-01-30T12:27:30;102682.72;;;10.43;72.26
81680;BME280;74989;52.210;5.148;2024-01-30T12:29:56;102679.66;;;10.46;71.92
81680;BME280;74989;52.210;5.148;2024-01-30T12:32:23;102690.06;;;10.48;72.25
81680;BME280;74989;52.210;5.148;2024-01-30T12:34:50;102671.19;;;10.57;71.70
81680;BME280;74989;52.210;5.148;2024-01-30T12:37:17;102680.50;;;10.53;71.97
81680;BME280;74989;52.210;5.148;2024-01-30T12:39:50;102676.47;;;10.57;72.04
81680;BME280;74989;52.210;5.148;2024-01-30T12:42:19;102683.34;;;10.52;72.36
81680;BME280;74989;52.210;5.148;2024-01-30T12:44:47;102699.59;;;10.49;73.22
81680;BME280;74989;52.210;5.148;2024-01-30T12:47:14;102695.72;;;10.45;73.27
81680;BME280;74989;52.210;5.148;2024-01-30T12:49:41;102696.09;;;10.42;73.73
81680;BME280;74989;52.210;5.148;2024-01-30T12:52:08;102704.22;;;10.40;73.76
81680;BME280;74989;52.210;5.148;2024-01-30T12:54:35;102702.56;;;10.32;73.94